sensor_id;sensor_type;location;lat;lon;timestamp;pressure;altitude;pressure_sealevel;temperature;humidity
8705;BME280;4389;41.932;25.904;2023-02-26T00:00:00;99646.28;;;15.22;85.42
8705;BME280;4389;41.932;25.904;2023-02-26T00:02:29;99635.16;;;15.18;85.28
8705;BME280;4389;41.932;25.904;2023-02-26T00:04:55;99655.84;;;15.16;85.67
8705;BME280;4389;41.932;25.904;2023-02-26T00:07:24;99650.69;;;15.15;85.15
8705;BME280;4389;41.932;25.904;2023-02-26T00:09:53;99631.47;;;15.19;84.81
8705;BME280;4389;41.932;25.904;2023-02-26T00:12:21;99645.09;;;15.24;85.00
8705;BME280;4389;41.932;25.904;2023-02-26T00:14:48;99644.91;;;15.26;84.69
8705;BME280;4389;41.932;25.904;2023-02-26T00:17:32;99634.53;;;15.31;84.78
8705;BME280;4389;41.932;25.904;2023-02-26T00:20:04;99639.84;;;15.31;84.65
8705;BME280;4389;41.932;25.904;2023-02-26T00:22:34;99635.38;;;15.31;84.50
8705;BME280;4389;41.932;25.904;2023-02-26T00:25:00;99630.88;;;15.32;84.79
8705;BME280;4389;41.932;25.904;2023-02-26T00:27:27;99625.53;;;15.32;84.64
8705;BME280;4389;41.932;25.904;2023-02-26T00:29:54;99629.19;;;15.31;84.30
8705;BME280;4389;41.932;25.904;2023-02-26T00:32:22;99620.53;;;15.29;84.23
8705;BME280;4389;41.932;25.904;2023-02-26T00:34:49;99618.88;;;15.28;84.61
8705;BME280;4389;41.932;25.904;2023-02-26T00:37:26;99619.81;;;15.35;84.12
8705;BME280;4389;41.932;25.904;2023-02-26T00:40:04;99589.47;;;15.36;84.47
8705;BME280;4389;41.932;25.904;2023-02-26T00:42:36;99544.78;;;15.38;84.19
8705;BME280;4389;41.932;25.904;2023-02-26T00:45:04;99534.38;;;15.43;83.67
8705;BME280;4389;41.932;25.904;2023-02-26T00:47:38;99524.81;;;15.48;83.74
8705;BME280;4389;41.932;25.904;2023-02-26T00:50:13;99559.28;;;15.50;83.25
8705;BME280;4389;41.932;25.904;2023-02-26T00:52:48;99559.66;;;15.47;83.09
8705;BME280;4389;41.932;25.904;2023-02-26T00:55:20;99546.97;;;15.49;83.53
8705;BME280;4389;41.932;25.904;2023-02-26T00:57:46;99558.84;;;15.46;83.57
8705;BME280;4389;41.932;25.904;2023-02-26T01:00:14;99549.38;;;15.44;83.26
8705;BME280;4389;41.932;25.904;2023-02-26T01:02:42;99540.75;;;15.42;83.55
8705;BME280;4389;41.932;25.904;2023-02-26T01:05:10;99537.31;;;15.48;83.35
8705;BME280;4389;41.932;25.904;2023-02-26T01:07:41;99552.69;;;15.46;83.06
8705;BME280;4389;41.932;25.904;2023-02-26T01:10:10;99558.03;;;15.46;83.15
8705;BME280;4389;41.932;25.904;2023-02-26T01:12:39;99570.34;;;15.47;83.12
8705;BME280;4389;41.932;25.904;2023-02-26T01:15:07;99564.16;;;15.46;82.89
8705;BME280;4389;41.932;25.904;2023-02-26T01:17:39;99586.34;;;15.47;82.83
8705;BME280;4389;41.932;25.904;2023-02-26T01:20:12;99593.31;;;15.48;82.47
8705;BME280;4389;41.932;25.904;2023-02-26T01:22:43;99587.59;;;15.51;82.53
8705;BME280;4389;41.932;25.904;2023-02-26T01:25:17;99574.66;;;15.48;82.48
8705;BME280;4389;41.932;25.904;2023-02-26T01:27:48;99591.22;;;15.43;82.61
8705;BME280;4389;41.932;25.904;2023-02-26T01:30:16;99588.72;;;15.42;82.91
8705;BME280;4389;41.932;25.904;2023-02-26T01:32:48;99579.72;;;15.43;83.09
8705;BME280;4389;41.932;25.904;2023-02-26T01:35:29;99576.88;;;15.44;82.63
8705;BME280;4389;41.932;25.904;2023-02-26T01:38:01;99585.44;;;15.40;82.95
8705;BME280;4389;41.932;25.904;2023-02-26T01:40:52;99587.09;;;15.41;83.01
8705;BME280;4389;41.932;25.904;2023-02-26T01:43:35;99573.31;;;15.37;83.17
8705;BME280;4389;41.932;25.904;2023-02-26T01:46:11;99588.09;;;15.40;82.87
8705;BME280;4389;41.932;25.904;2023-02-26T01:48:48;99586.81;;;15.36;82.95
8705;BME280;4389;41.932;25.904;2023-02-26T01:51:15;99589.69;;;15.34;83.41
8705;BME280;4389;41.932;25.904;2023-02-26T01:53:42;99602.53;;;15.31;83.54
8705;BME280;4389;41.932;25.904;2023-02-26T01:56:12;99596.38;;;15.30;83.18
8705;BME280;4389;41.932;25.904;2023-02-26T01:58:43;99597.22;;;15.31;83.43
8705;BME280;4389;41.932;25.904;2023-02-26T02:01:10;99582.59;;;15.27;83.36
8705;BME280;4389;41.932;25.904;2023-02-26T02:03:38;99609.88;;;15.29;83.38
8705;BME280;4389;41.932;25.904;2023-02-26T02:06:09;99610.25;;;15.26;83.60
8705;BME280;4389;41.932;25.904;2023-02-26T02:08:40;99612.28;;;15.24;83.57
8705;BME280;4389;41.932;25.904;2023-02-26T02:11:09;99613.84;;;15.18;84.13
8705;BME280;4389;41.932;25.904;2023-02-26T02:13:56;99608.72;;;15.17;84.49
8705;BME280;4389;41.932;25.904;2023-02-26T02:16:32;99609.91;;;15.14;84.88
8705;BME280;4389;41.932;25.904;2023-02-26T02:19:13;99608.44;;;15.12;85.10
8705;BME280;4389;41.932;25.904;2023-02-26T02:21:53;99622.97;;;15.09;85.25
8705;BME280;4389;41.932;25.904;2023-02-26T02:24:33;99603.13;;;15.12;85.88
8705;BME280;4389;41.932;25.904;2023-02-26T02:27:05;99645.66;;;15.05;86.05
8705;BME280;4389;41.932;25.904;2023-02-26T02:32:40;99647.50;;;15.05;86.03
8705;BME280;4389;41.932;25.904;2023-02-26T02:35:14;99649.53;;;15.03;86.65
8705;BME280;4389;41.932;25.904;2023-02-26T02:37:46;99660.81;;;15.05;85.77
8705;BME280;4389;41.932;25.904;2023-02-26T02:40:17;99660.19;;;15.03;86.30
8705;BME280;4389;41.932;25.904;2023-02-26T02:42:49;99659.72;;;14.99;86.01
8705;BME280;4389;41.932;25.904;2023-02-26T02:45:19;99677.53;;;14.99;86.30
8705;BME280;4389;41.932;25.904;2023-02-26T02:47:55;99664.50;;;15.04;85.86
8705;BME280;4389;41.932;25.904;2023-02-26T02:50:27;99684.16;;;15.03;85.89
8705;BME280;4389;41.932;25.904;2023-02-26T02:52:57;99685.81;;;15.04;85.74
8705;BME280;4389;41.932;25.904;2023-02-26T02:55:29;99702.81;;;15.03;85.67
8705;BME280;4389;41.932;25.904;2023-02-26T02:58:02;99687.81;;;15.02;85.51
8705;BME280;4389;41.932;25.904;2023-02-26T03:00:33;99694.00;;;15.02;85.86
8705;BME280;4389;41.932;25.904;2023-02-26T03:03:09;99691.16;;;15.04;85.34
8705;BME280;4389;41.932;25.904;2023-02-26T03:05:39;99686.47;;;15.06;84.66
8705;BME280;4389;41.932;25.904;2023-02-26T03:08:09;99687.09;;;15.08;84.94
8705;BME280;4389;41.932;25.904;2023-02-26T03:10:37;99682.44;;;15.10;84.78
8705;BME280;4389;41.932;25.904;2023-02-26T03:13:04;99687.09;;;15.08;84.51
8705;BME280;4389;41.932;25.904;2023-02-26T03:15:36;99700.69;;;15.13;83.94
8705;BME280;4389;41.932;25.904;2023-02-26T03:18:13;99706.31;;;15.18;83.41
8705;BME280;4389;41.932;25.904;2023-02-26T03:20:51;99705.28;;;15.19;83.25
8705;BME280;4389;41.932;25.904;2023-02-26T03:23:24;99716.25;;;15.24;82.72
8705;BME280;4389;41.932;25.904;2023-02-26T03:25:59;99722.84;;;15.28;83.01
8705;BME280;4389;41.932;25.904;2023-02-26T03:28:31;99732.41;;;15.22;82.63
8705;BME280;4389;41.932;25.904;2023-02-26T03:31:05;99731.84;;;15.27;82.55
8705;BME280;4389;41.932;25.904;2023-02-26T03:33:42;99740.88;;;15.26;82.51
8705;BME280;4389;41.932;25.904;2023-02-26T03:36:17;99727.88;;;15.23;82.56
8705;BME280;4389;41.932;25.904;2023-02-26T03:38:50;99740.03;;;15.25;82.82
8705;BME280;4389;41.932;25.904;2023-02-26T03:41:21;99725.88;;;15.25;82.38
8705;BME280;4389;41.932;25.904;2023-02-26T03:43:53;99729.91;;;15.21;82.73
8705;BME280;4389;41.932;25.904;2023-02-26T03:46:25;99744.25;;;15.20;82.08
8705;BME280;4389;41.932;25.904;2023-02-26T03:48:58;99746.19;;;15.26;82.10
8705;BME280;4389;41.932;25.904;2023-02-26T03:51:28;99749.03;;;15.24;81.87
8705;BME280;4389;41.932;25.904;2023-02-26T03:53:59;99745.91;;;15.21;81.99
8705;BME280;4389;41.932;25.904;2023-02-26T03:56:31;99746.53;;;15.23;81.63
8705;BME280;4389;41.932;25.904;2023-02-26T03:59:00;99748.22;;;15.24;81.25
8705;BME280;4389;41.932;25.904;2023-02-26T04:01:30;99744.53;;;15.25;80.75
8705;BME280;4389;41.932;25.904;2023-02-26T04:04:03;99741.88;;;15.25;80.97
8705;BME280;4389;41.932;25.904;2023-02-26T04:06:32;99744.09;;;15.21;81.12
8705;BME280;4389;41.932;25.904;2023-02-26T04:09:00;99748.03;;;15.25;80.78
8705;BME280;4389;41.932;25.904;2023-02-26T04:11:28;99749.22;;;15.23;80.93
8705;BME280;4389;41.932;25.904;2023-02-26T04:13:56;99748.75;;;15.19;80.92
8705;BME280;4389;41.932;25.904;2023-02-26T04:16:22;99756.09;;;15.17;80.85
8705;BME280;4389;41.932;25.904;2023-02-26T04:18:50;99761.16;;;15.12;81.04
8705;BME280;4389;41.932;25.904;2023-02-26T04:21:21;99758.94;;;15.16;81.69
8705;BME280;4389;41.932;25.904;2023-02-26T04:23:48;99768.50;;;15.10;81.69
8705;BME280;4389;41.932;25.904;2023-02-26T04:26:15;99769.06;;;15.06;81.45
8705;BME280;4389;41.932;25.904;2023-02-26T04:28:41;99775.03;;;15.08;81.97
8705;BME280;4389;41.932;25.904;2023-02-26T04:31:08;99780.44;;;15.00;82.55
8705;BME280;4389;41.932;25.904;2023-02-26T04:33:36;99769.78;;;15.00;82.51
8705;BME280;4389;41.932;25.904;2023-02-26T04:36:03;99770.16;;;14.97;82.82
8705;BME280;4389;41.932;25.904;2023-02-26T04:38:31;99771.22;;;14.88;82.98
8705;BME280;4389;41.932;25.904;2023-02-26T04:40:58;99779.88;;;14.90;82.73
8705;BME280;4389;41.932;25.904;2023-02-26T04:43:25;99771.28;;;14.80;83.17
8705;BME280;4389;41.932;25.904;2023-02-26T04:45:52;99775.13;;;14.77;83.32
8705;BME280;4389;41.932;25.904;2023-02-26T04:48:19;99772.22;;;14.72;83.18
8705;BME280;4389;41.932;25.904;2023-02-26T04:50:46;99769.72;;;14.71;83.45
8705;BME280;4389;41.932;25.904;2023-02-26T04:53:13;99773.03;;;14.73;83.29
8705;BME280;4389;41.932;25.904;2023-02-26T04:55:41;99767.06;;;14.71;83.31
8705;BME280;4389;41.932;25.904;2023-02-26T04:58:08;99779.81;;;14.61;83.62
8705;BME280;4389;41.932;25.904;2023-02-26T05:00:35;99785.94;;;14.61;83.94
8705;BME280;4389;41.932;25.904;2023-02-26T05:03:02;99795.78;;;14.61;83.67
8705;BME280;4389;41.932;25.904;2023-02-26T05:05:29;99793.28;;;14.59;83.47
8705;BME280;4389;41.932;25.904;2023-02-26T05:07:56;99786.31;;;14.58;83.56
8705;BME280;4389;41.932;25.904;2023-02-26T05:10:23;99786.47;;;14.57;83.77
8705;BME280;4389;41.932;25.904;2023-02-26T05:12:51;99779.56;;;14.48;83.70
8705;BME280;4389;41.932;25.904;2023-02-26T05:15:18;99774.25;;;14.48;84.26
8705;BME280;4389;41.932;25.904;2023-02-26T05:17:45;99770.56;;;14.49;83.88
8705;BME280;4389;41.932;25.904;2023-02-26T05:20:12;99773.41;;;14.47;83.82
8705;BME280;4389;41.932;25.904;2023-02-26T05:22:40;99777.13;;;14.61;82.98
8705;BME280;4389;41.932;25.904;2023-02-26T05:25:08;99783.09;;;14.63;82.84
8705;BME280;4389;41.932;25.904;2023-02-26T05:27:36;99781.94;;;14.65;82.37
8705;BME280;4389;41.932;25.904;2023-02-26T05:30:05;99799.66;;;14.73;81.99
8705;BME280;4389;41.932;25.904;2023-02-26T05:32:33;99808.66;;;14.72;82.04
8705;BME280;4389;41.932;25.904;2023-02-26T05:34:59;99802.25;;;14.81;81.38
8705;BME280;4389;41.932;25.904;2023-02-26T05:37:26;99804.41;;;14.85;81.46
8705;BME280;4389;41.932;25.904;2023-02-26T05:39:53;99786.56;;;14.86;81.17
8705;BME280;4389;41.932;25.904;2023-02-26T05:42:20;99784.38;;;14.89;80.79
8705;BME280;4389;41.932;25.904;2023-02-26T05:44:47;99783.41;;;15.05;80.05
8705;BME280;4389;41.932;25.904;2023-02-26T05:47:15;99784.16;;;15.13;79.38
8705;BME280;4389;41.932;25.904;2023-02-26T05:49:42;99787.63;;;15.14;79.09
8705;BME280;4389;41.932;25.904;2023-02-26T05:52:09;99782.28;;;15.14;79.15
8705;BME280;4389;41.932;25.904;2023-02-26T05:54:36;99787.28;;;15.17;78.52
8705;BME280;4389;41.932;25.904;2023-02-26T05:57:02;99789.56;;;15.20;78.49
8705;BME280;4389;41.932;25.904;2023-02-26T05:59:29;99800.88;;;15.22;78.40
8705;BME280;4389;41.932;25.904;2023-02-26T06:01:56;99787.75;;;15.20;78.34
8705;BME280;4389;41.932;25.904;2023-02-26T06:04:25;99798.50;;;15.27;78.29
8705;BME280;4389;41.932;25.904;2023-02-26T06:06:52;99787.00;;;15.26;77.95
8705;BME280;4389;41.932;25.904;2023-02-26T06:09:18;99786.81;;;15.28;77.28
8705;BME280;4389;41.932;25.904;2023-02-26T06:11:45;99809.94;;;15.35;77.06
8705;BME280;4389;41.932;25.904;2023-02-26T06:14:12;99805.31;;;15.44;77.05
8705;BME280;4389;41.932;25.904;2023-02-26T06:16:39;99786.31;;;15.47;76.93
8705;BME280;4389;41.932;25.904;2023-02-26T06:19:06;99787.34;;;15.46;77.24
8705;BME280;4389;41.932;25.904;2023-02-26T06:21:34;99791.25;;;15.50;77.23
8705;BME280;4389;41.932;25.904;2023-02-26T06:24:01;99802.22;;;15.55;77.08
8705;BME280;4389;41.932;25.904;2023-02-26T06:26:28;99807.16;;;15.58;76.75
8705;BME280;4389;41.932;25.904;2023-02-26T06:28:55;99815.84;;;15.60;77.08
8705;BME280;4389;41.932;25.904;2023-02-26T06:31:21;99826.13;;;15.63;77.34
8705;BME280;4389;41.932;25.904;2023-02-26T06:33:48;99813.41;;;15.65;76.74
8705;BME280;4389;41.932;25.904;2023-02-26T06:36:15;99814.34;;;15.72;76.78
8705;BME280;4389;41.932;25.904;2023-02-26T06:38:44;99819.69;;;15.72;77.25
8705;BME280;4389;41.932;25.904;2023-02-26T06:41:11;99804.34;;;15.74;76.42
8705;BME280;4389;41.932;25.904;2023-02-26T06:43:38;99790.22;;;15.80;76.56
8705;BME280;4389;41.932;25.904;2023-02-26T06:46:05;99792.44;;;15.91;75.81
8705;BME280;4389;41.932;25.904;2023-02-26T06:48:32;99764.63;;;16.00;75.27
8705;BME280;4389;41.932;25.904;2023-02-26T06:50:59;99787.44;;;16.02;75.91
8705;BME280;4389;41.932;25.904;2023-02-26T06:53:26;99786.50;;;16.10;74.77
8705;BME280;4389;41.932;25.904;2023-02-26T06:55:54;99788.41;;;16.16;74.44
8705;BME280;4389;41.932;25.904;2023-02-26T06:58:21;99793.66;;;16.24;74.10
8705;BME280;4389;41.932;25.904;2023-02-26T07:00:48;99787.91;;;16.27;73.89
8705;BME280;4389;41.932;25.904;2023-02-26T07:03:16;99797.13;;;16.39;73.91
8705;BME280;4389;41.932;25.904;2023-02-26T07:05:44;99805.91;;;16.54;72.79
8705;BME280;4389;41.932;25.904;2023-02-26T07:08:12;99800.56;;;16.54;72.82
8705;BME280;4389;41.932;25.904;2023-02-26T07:10:39;99806.81;;;16.61;72.65
8705;BME280;4389;41.932;25.904;2023-02-26T07:13:08;99821.69;;;16.70;72.78
8705;BME280;4389;41.932;25.904;2023-02-26T07:15:35;99813.94;;;16.75;72.25
8705;BME280;4389;41.932;25.904;2023-02-26T07:18:02;99823.59;;;16.76;72.05
8705;BME280;4389;41.932;25.904;2023-02-26T07:20:29;99848.53;;;16.83;71.83
8705;BME280;4389;41.932;25.904;2023-02-26T07:22:56;99841.91;;;16.79;71.15
8705;BME280;4389;41.932;25.904;2023-02-26T07:25:23;99843.91;;;16.91;71.41
8705;BME280;4389;41.932;25.904;2023-02-26T07:27:50;99856.16;;;17.07;70.72
8705;BME280;4389;41.932;25.904;2023-02-26T07:30:18;99842.56;;;17.02;70.56
8705;BME280;4389;41.932;25.904;2023-02-26T07:32:45;99863.16;;;17.08;70.78
8705;BME280;4389;41.932;25.904;2023-02-26T07:35:12;99857.31;;;16.98;71.19
8705;BME280;4389;41.932;25.904;2023-02-26T07:37:39;99862.16;;;17.09;70.71
8705;BME280;4389;41.932;25.904;2023-02-26T07:40:07;99853.41;;;17.21;69.88
8705;BME280;4389;41.932;25.904;2023-02-26T07:42:34;99870.53;;;17.06;70.84
8705;BME280;4389;41.932;25.904;2023-02-26T07:45:01;99867.81;;;17.20;70.07
8705;BME280;4389;41.932;25.904;2023-02-26T07:47:29;99852.09;;;17.11;69.13
8705;BME280;4389;41.932;25.904;2023-02-26T07:49:56;99849.28;;;17.19;68.69
8705;BME280;4389;41.932;25.904;2023-02-26T07:52:23;99858.31;;;17.18;68.72
8705;BME280;4389;41.932;25.904;2023-02-26T07:54:50;99835.63;;;17.14;67.97
8705;BME280;4389;41.932;25.904;2023-02-26T07:57:17;99838.09;;;17.09;68.20
8705;BME280;4389;41.932;25.904;2023-02-26T07:59:44;99819.50;;;17.01;68.23
8705;BME280;4389;41.932;25.904;2023-02-26T08:02:11;99825.63;;;16.95;68.49
8705;BME280;4389;41.932;25.904;2023-02-26T08:04:40;99815.69;;;16.89;68.00
8705;BME280;4389;41.932;25.904;2023-02-26T08:07:07;99823.19;;;16.79;67.84
8705;BME280;4389;41.932;25.904;2023-02-26T08:09:34;99817.28;;;16.83;66.85
8705;BME280;4389;41.932;25.904;2023-02-26T08:12:01;99816.38;;;16.76;67.23
8705;BME280;4389;41.932;25.904;2023-02-26T08:14:29;99818.88;;;16.78;66.91
8705;BME280;4389;41.932;25.904;2023-02-26T08:16:56;99830.00;;;16.81;65.66
8705;BME280;4389;41.932;25.904;2023-02-26T08:19:23;99833.31;;;16.83;65.59
8705;BME280;4389;41.932;25.904;2023-02-26T08:21:51;99837.59;;;16.78;66.16
8705;BME280;4389;41.932;25.904;2023-02-26T08:24:19;99835.44;;;16.88;64.82
8705;BME280;4389;41.932;25.904;2023-02-26T08:26:47;99838.78;;;16.96;64.23
8705;BME280;4389;41.932;25.904;2023-02-26T08:29:13;99829.50;;;16.92;64.20
8705;BME280;4389;41.932;25.904;2023-02-26T08:31:40;99833.00;;;16.93;64.51
8705;BME280;4389;41.932;25.904;2023-02-26T08:34:07;99833.88;;;17.00;63.91
8705;BME280;4389;41.932;25.904;2023-02-26T08:36:34;99812.13;;;17.03;64.19
8705;BME280;4389;41.932;25.904;2023-02-26T08:39:03;99807.22;;;17.06;64.31
8705;BME280;4389;41.932;25.904;2023-02-26T08:41:30;99797.72;;;17.04;64.25
8705;BME280;4389;41.932;25.904;2023-02-26T08:43:57;99811.72;;;17.06;64.93
8705;BME280;4389;41.932;25.904;2023-02-26T08:46:24;99811.56;;;17.14;64.39
8705;BME280;4389;41.932;25.904;2023-02-26T08:48:52;99810.97;;;17.12;64.24
8705;BME280;4389;41.932;25.904;2023-02-26T08:51:19;99818.34;;;17.10;63.84
8705;BME280;4389;41.932;25.904;2023-02-26T08:53:45;99803.34;;;17.09;64.09
8705;BME280;4389;41.932;25.904;2023-02-26T08:56:16;99811.97;;;17.11;64.01
8705;BME280;4389;41.932;25.904;2023-02-26T08:58:43;99820.88;;;17.18;63.69
8705;BME280;4389;41.932;25.904;2023-02-26T09:01:10;99823.81;;;17.23;63.08
8705;BME280;4389;41.932;25.904;2023-02-26T09:03:37;99837.81;;;17.25;63.20
8705;BME280;4389;41.932;25.904;2023-02-26T09:06:04;99825.31;;;17.32;63.25
8705;BME280;4389;41.932;25.904;2023-02-26T09:08:31;99832.13;;;17.34;62.63
8705;BME280;4389;41.932;25.904;2023-02-26T09:10:59;99809.38;;;17.45;63.28
8705;BME280;4389;41.932;25.904;2023-02-26T09:13:28;99785.25;;;17.38;62.82
8705;BME280;4389;41.932;25.904;2023-02-26T09:15:55;99804.69;;;17.53;62.54
8705;BME280;4389;41.932;25.904;2023-02-26T09:18:22;99800.59;;;17.57;62.56
8705;BME280;4389;41.932;25.904;2023-02-26T09:20:49;99799.38;;;17.60;62.30
8705;BME280;4389;41.932;25.904;2023-02-26T09:23:16;99801.72;;;17.69;62.31
8705;BME280;4389;41.932;25.904;2023-02-26T09:25:43;99784.97;;;17.61;62.31
8705;BME280;4389;41.932;25.904;2023-02-26T09:28:10;99798.28;;;17.48;62.79
8705;BME280;4389;41.932;25.904;2023-02-26T09:30:38;99786.16;;;17.52;62.86
8705;BME280;4389;41.932;25.904;2023-02-26T09:33:05;99776.69;;;17.49;63.27
8705;BME280;4389;41.932;25.904;2023-02-26T09:35:34;99765.19;;;17.55;63.02
8705;BME280;4389;41.932;25.904;2023-02-26T09:38:00;99764.34;;;17.48;63.00
8705;BME280;4389;41.932;25.904;2023-02-26T09:40:36;99755.88;;;17.45;63.66
8705;BME280;4389;41.932;25.904;2023-02-26T09:43:18;99737.00;;;17.53;63.64
8705;BME280;4389;41.932;25.904;2023-02-26T09:45:56;99761.84;;;17.47;63.17
8705;BME280;4389;41.932;25.904;2023-02-26T09:48:25;99761.75;;;17.34;63.05
8705;BME280;4389;41.932;25.904;2023-02-26T09:50:56;99765.03;;;17.36;63.32
8705;BME280;4389;41.932;25.904;2023-02-26T09:53:26;99768.81;;;17.41;63.14
8705;BME280;4389;41.932;25.904;2023-02-26T09:55:59;99780.34;;;17.42;63.26
8705;BME280;4389;41.932;25.904;2023-02-26T09:58:29;99745.69;;;17.34;62.30
8705;BME280;4389;41.932;25.904;2023-02-26T10:01:04;99728.00;;;17.33;61.86
8705;BME280;4389;41.932;25.904;2023-02-26T10:03:51;99719.84;;;17.41;62.55
8705;BME280;4389;41.932;25.904;2023-02-26T10:06:23;99731.81;;;17.45;61.48
8705;BME280;4389;41.932;25.904;2023-02-26T10:09:18;99730.97;;;17.51;60.70
8705;BME280;4389;41.932;25.904;2023-02-26T10:11:50;99740.53;;;17.60;59.84
8705;BME280;4389;41.932;25.904;2023-02-26T10:14:22;99713.97;;;17.58;59.74
8705;BME280;4389;41.932;25.904;2023-02-26T10:16:55;99720.41;;;17.70;59.25
8705;BME280;4389;41.932;25.904;2023-02-26T10:19:27;99731.53;;;17.80;59.13
8705;BME280;4389;41.932;25.904;2023-02-26T10:21:58;99733.22;;;17.88;58.12
8705;BME280;4389;41.932;25.904;2023-02-26T10:24:30;99720.09;;;17.99;56.75
8705;BME280;4389;41.932;25.904;2023-02-26T10:27:04;99721.34;;;18.10;56.30
8705;BME280;4389;41.932;25.904;2023-02-26T10:29:35;99743.63;;;18.17;55.97
8705;BME280;4389;41.932;25.904;2023-02-26T10:32:17;99713.19;;;18.31;54.64
8705;BME280;4389;41.932;25.904;2023-02-26T10:34:51;99746.16;;;18.38;54.32
8705;BME280;4389;41.932;25.904;2023-02-26T10:37:31;99726.56;;;18.31;54.52
8705;BME280;4389;41.932;25.904;2023-02-26T10:40:03;99723.44;;;18.27;54.59
8705;BME280;4389;41.932;25.904;2023-02-26T10:42:38;99746.97;;;18.32;54.52
8705;BME280;4389;41.932;25.904;2023-02-26T10:45:21;99769.25;;;18.39;53.76
8705;BME280;4389;41.932;25.904;2023-02-26T10:48:00;99770.44;;;18.30;54.37
8705;BME280;4389;41.932;25.904;2023-02-26T10:50:30;99773.16;;;18.56;54.19
8705;BME280;4389;41.932;25.904;2023-02-26T10:52:57;99787.19;;;18.45;54.15
8705;BME280;4389;41.932;25.904;2023-02-26T10:55:38;99796.44;;;18.49;53.93
8705;BME280;4389;41.932;25.904;2023-02-26T10:58:11;99813.41;;;18.69;53.12
8705;BME280;4389;41.932;25.904;2023-02-26T11:00:39;99820.22;;;18.77;51.99
8705;BME280;4389;41.932;25.904;2023-02-26T11:03:14;99806.81;;;18.90;51.61
8705;BME280;4389;41.932;25.904;2023-02-26T11:05:42;99809.94;;;19.00;51.26
8705;BME280;4389;41.932;25.904;2023-02-26T11:08:12;99833.66;;;19.03;51.75
8705;BME280;4389;41.932;25.904;2023-02-26T11:10:46;99792.59;;;18.96;51.61
8705;BME280;4389;41.932;25.904;2023-02-26T11:13:13;99803.09;;;18.91;51.81
8705;BME280;4389;41.932;25.904;2023-02-26T11:15:41;99824.97;;;18.95;51.78
8705;BME280;4389;41.932;25.904;2023-02-26T11:18:14;99809.31;;;19.11;51.69
8705;BME280;4389;41.932;25.904;2023-02-26T11:20:44;99827.06;;;19.25;51.37
8705;BME280;4389;41.932;25.904;2023-02-26T11:23:12;99834.09;;;19.26;50.97
8705;BME280;4389;41.932;25.904;2023-02-26T11:25:40;99833.84;;;19.15;51.30
8705;BME280;4389;41.932;25.904;2023-02-26T11:28:19;99829.50;;;18.82;51.68
8705;BME280;4389;41.932;25.904;2023-02-26T11:30:47;99839.41;;;18.88;52.26
8705;BME280;4389;41.932;25.904;2023-02-26T11:33:22;99853.66;;;19.01;52.10
8705;BME280;4389;41.932;25.904;2023-02-26T11:35:57;99816.31;;;18.87;52.05
8705;BME280;4389;41.932;25.904;2023-02-26T11:38:25;99826.59;;;18.70;52.79
8705;BME280;4389;41.932;25.904;2023-02-26T11:40:55;99812.81;;;18.86;52.43
8705;BME280;4389;41.932;25.904;2023-02-26T11:43:24;99810.31;;;18.84;52.45
8705;BME280;4389;41.932;25.904;2023-02-26T11:45:55;99832.78;;;18.71;53.38
8705;BME280;4389;41.932;25.904;2023-02-26T11:48:26;99803.09;;;18.66;53.35
8705;BME280;4389;41.932;25.904;2023-02-26T11:50:59;99813.81;;;18.66;53.13
8705;BME280;4389;41.932;25.904;2023-02-26T11:53:31;99803.50;;;18.76;53.45
8705;BME280;4389;41.932;25.904;2023-02-26T11:56:01;99777.75;;;18.75;52.91
8705;BME280;4389;41.932;25.904;2023-02-26T11:58:33;99803.88;;;18.53;52.94
8705;BME280;4389;41.932;25.904;2023-02-26T12:01:01;99800.16;;;18.48;53.60
8705;BME280;4389;41.932;25.904;2023-02-26T12:03:35;99814.81;;;18.52;53.70
8705;BME280;4389;41.932;25.904;2023-02-26T12:06:04;99811.72;;;18.48;53.81
8705;BME280;4389;41.932;25.904;2023-02-26T12:08:33;99796.44;;;18.42;53.77
8705;BME280;4389;41.932;25.904;2023-02-26T12:14:14;99796.03;;;18.39;53.46
8705;BME280;4389;41.932;25.904;2023-02-26T12:16:52;99797.25;;;18.43;53.56
8705;BME280;4389;41.932;25.904;2023-02-26T12:19:34;99799.59;;;18.59;53.69
8705;BME280;4389;41.932;25.904;2023-02-26T12:22:12;99794.44;;;18.77;52.53
8705;BME280;4389;41.932;25.904;2023-02-26T12:24:56;99790.94;;;18.95;51.92
8705;BME280;4389;41.932;25.904;2023-02-26T12:27:36;99775.88;;;19.01;51.15
8705;BME280;4389;41.932;25.904;2023-02-26T12:30:24;99786.19;;;19.10;51.09
8705;BME280;4389;41.932;25.904;2023-02-26T12:33:09;99784.34;;;19.30;50.45
8705;BME280;4389;41.932;25.904;2023-02-26T12:36:00;99783.69;;;19.54;50.10
8705;BME280;4389;41.932;25.904;2023-02-26T12:38:37;99782.47;;;19.50;49.37
8705;BME280;4389;41.932;25.904;2023-02-26T12:41:16;99795.69;;;19.32;49.34
8705;BME280;4389;41.932;25.904;2023-02-26T12:43:49;99776.69;;;19.27;49.54
8705;BME280;4389;41.932;25.904;2023-02-26T12:46:34;99771.56;;;19.26;49.71
8705;BME280;4389;41.932;25.904;2023-02-26T12:49:29;99803.34;;;19.22;49.52
8705;BME280;4389;41.932;25.904;2023-02-26T12:52:22;99786.59;;;19.14;50.06
8705;BME280;4389;41.932;25.904;2023-02-26T12:55:12;99810.56;;;19.15;49.66
8705;BME280;4389;41.932;25.904;2023-02-26T12:57:56;99772.16;;;19.15;49.39
8705;BME280;4389;41.932;25.904;2023-02-26T13:00:39;99809.09;;;19.06;49.69
8705;BME280;4389;41.932;25.904;2023-02-26T13:03:38;99791.56;;;19.10;49.64
8705;BME280;4389;41.932;25.904;2023-02-26T13:06:29;99794.44;;;19.02;49.67
8705;BME280;4389;41.932;25.904;2023-02-26T13:09:05;99787.44;;;19.01;49.29
8705;BME280;4389;41.932;25.904;2023-02-26T13:11:46;99813.22;;;19.09;49.82
8705;BME280;4389;41.932;25.904;2023-02-26T13:14:26;99808.69;;;19.09;50.08
8705;BME280;4389;41.932;25.904;2023-02-26T13:17:00;99810.13;;;19.18;50.03
8705;BME280;4389;41.932;25.904;2023-02-26T13:19:35;99797.75;;;19.17;50.17
8705;BME280;4389;41.932;25.904;2023-02-26T13:22:14;99827.50;;;19.22;50.15
8705;BME280;4389;41.932;25.904;2023-02-26T13:24:49;99834.09;;;19.26;49.81
8705;BME280;4389;41.932;25.904;2023-02-26T13:27:19;99812.63;;;19.00;50.27
8705;BME280;4389;41.932;25.904;2023-02-26T13:30:03;99818.41;;;19.04;50.42
8705;BME280;4389;41.932;25.904;2023-02-26T13:32:32;99821.28;;;19.02;51.02
8705;BME280;4389;41.932;25.904;2023-02-26T13:35:03;99799.19;;;18.88;51.08